createdAt,value
2022-09-07T00:00:10.235Z,17.14
2022-09-07T00:01:41.079Z,17.46
2022-09-07T00:02:48.564Z,17.71
2022-09-07T00:04:05.889Z,17.57
2022-09-07T00:05:15.439Z,17.62
2022-09-07T00:06:25.432Z,17.20
2022-09-07T00:07:31.892Z,17.09
2022-09-07T00:08:37.404Z,17.46
2022-09-07T00:09:43.686Z,17.47
2022-09-07T00:10:59.823Z,17.64
2022-09-07T00:12:13.055Z,17.54
2022-09-07T00:13:23.490Z,17.37
2022-09-07T00:14:30.030Z,17.34
2022-09-07T00:15:41.329Z,17.51
2022-09-07T00:16:47.149Z,17.63
2022-09-07T00:17:54.699Z,18.03
2022-09-07T00:19:01.560Z,17.97
2022-09-07T00:20:08.397Z,17.97
2022-09-07T00:21:16.749Z,17.96
2022-09-07T00:22:25.145Z,17.89
2022-09-07T00:23:31.756Z,17.76
2022-09-07T00:24:38.708Z,17.59
2022-09-07T00:25:44.778Z,17.83
2022-09-07T00:26:50.702Z,17.90
2022-09-07T00:27:57.681Z,18.07
2022-09-07T00:29:03.703Z,18.34
2022-09-07T00:30:11.590Z,18.42
2022-09-07T00:31:21.737Z,18.38
2022-09-07T00:32:28.450Z,18.20
2022-09-07T00:33:34.543Z,18.17
2022-09-07T00:34:41.414Z,18.40
2022-09-07T00:35:48.881Z,18.34
2022-09-07T00:36:54.832Z,18.46
2022-09-07T00:38:01.034Z,18.52
2022-09-07T00:39:08.031Z,18.54
2022-09-07T00:40:15.066Z,18.58
2022-09-07T00:41:22.071Z,18.81
2022-09-07T00:42:29.899Z,18.92
2022-09-07T00:43:43.911Z,19.23
2022-09-07T00:44:59.037Z,19.29
2022-09-07T00:46:06.211Z,19.57
2022-09-07T00:47:15.059Z,19.81
2022-09-07T00:48:22.894Z,20.16
2022-09-07T00:49:28.702Z,20.11
2022-09-07T00:50:50.637Z,20.37
2022-09-07T00:51:59.738Z,20.19
2022-09-07T00:53:15.690Z,20.44
2022-09-07T00:54:25.950Z,20.66
2022-09-07T00:55:32.581Z,20.79
2022-09-07T00:56:39.721Z,20.83
2022-09-07T00:57:48.727Z,20.65
2022-09-07T00:58:54.249Z,20.67
2022-09-07T01:00:00.203Z,20.67
2022-09-07T01:01:06.278Z,20.72
2022-09-07T01:02:13.036Z,20.87
2022-09-07T01:03:19.951Z,21.09
2022-09-07T01:04:26.552Z,21.08
2022-09-07T01:05:47.764Z,21.19
2022-09-07T01:06:54.174Z,21.27
2022-09-07T01:08:00.341Z,21.32
2022-09-07T01:09:11.855Z,21.25
2022-09-07T01:10:19.403Z,21.34
2022-09-07T01:11:25.572Z,21.36
2022-09-07T01:12:32.104Z,21.39
2022-09-07T01:13:41.029Z,21.34
2022-09-07T01:14:52.815Z,21.33
2022-09-07T01:16:07.339Z,21.28
2022-09-07T01:17:48.988Z,21.20
2022-09-07T01:19:10.829Z,21.49
2022-09-07T01:20:33.670Z,21.66
2022-09-07T01:22:13.821Z,21.55
2022-09-07T01:23:39.290Z,21.81
2022-09-07T01:25:09.507Z,21.91
2022-09-07T01:26:30.909Z,22.01
2022-09-07T01:28:21.928Z,22.24
2022-09-07T01:30:04.957Z,22.34
2022-09-07T01:31:32.763Z,22.75
2022-09-07T01:33:03.937Z,23.26
2022-09-07T01:34:26.330Z,23.47
2022-09-07T01:35:53.538Z,23.67
2022-09-07T01:37:18.395Z,23.90
2022-09-07T01:38:50.073Z,24.01
2022-09-07T01:40:09.052Z,24.25
2022-09-07T01:41:41.780Z,24.53
2022-09-07T01:42:59.665Z,24.79
2022-09-07T01:44:25.294Z,24.79
2022-09-07T01:45:32.100Z,24.97
2022-09-07T01:47:02.296Z,24.92
2022-09-07T01:48:09.759Z,25.14
2022-09-07T01:49:29.898Z,25.33
2022-09-07T01:50:40.163Z,25.56
2022-09-07T01:51:47.087Z,25.76
2022-09-07T01:52:57.163Z,25.83
2022-09-07T01:54:35.627Z,26.09
2022-09-07T01:55:50.959Z,26.42
2022-09-07T01:57:01.968Z,26.65
2022-09-07T01:58:21.972Z,26.92
2022-09-07T01:59:40.669Z,27.12
2022-09-07T02:01:21.628Z,27.36
2022-09-07T02:02:31.282Z,27.33
2022-09-07T02:04:12.037Z,27.39
2022-09-07T02:05:23.246Z,27.49
2022-09-07T02:07:08.574Z,27.25
2022-09-07T02:08:33.891Z,27.17
2022-09-07T02:09:52.684Z,27.10
2022-09-07T02:11:02.745Z,26.98
2022-09-07T02:12:18.049Z,27.00
2022-09-07T02:13:41.702Z,27.08
2022-09-07T02:15:03.691Z,27.26
2022-09-07T02:16:18.180Z,27.37
2022-09-07T02:17:37.329Z,27.58
2022-09-07T02:18:49.830Z,27.84
2022-09-07T02:20:05.374Z,28.16
2022-09-07T02:21:12.469Z,28.29
2022-09-07T02:22:21.952Z,28.49
2022-09-07T02:23:32.283Z,28.43
2022-09-07T02:24:42.494Z,28.18
2022-09-07T02:25:52.932Z,28.21
2022-09-07T02:27:00.392Z,28.55
2022-09-07T02:28:16.225Z,28.78
2022-09-07T02:29:25.229Z,28.94
2022-09-07T02:30:34.420Z,29.24
2022-09-07T02:31:41.083Z,29.30
2022-09-07T02:32:48.105Z,29.52
2022-09-07T02:33:55.708Z,29.90
2022-09-07T02:35:03.512Z,30.27
2022-09-07T02:36:13.809Z,30.32
2022-09-07T02:37:22.425Z,30.39
2022-09-07T02:38:29.473Z,30.60
2022-09-07T02:39:36.071Z,30.85
2022-09-07T02:40:44.087Z,31.08
2022-09-07T02:41:50.991Z,31.72
2022-09-07T02:43:01.068Z,32.06
2022-09-07T02:44:17.221Z,32.39
2022-09-07T02:45:24.794Z,32.27
2022-09-07T02:47:02.723Z,32.42
2022-09-07T02:48:12.495Z,32.50
2022-09-07T02:49:32.521Z,33.07
2022-09-07T02:51:04.336Z,33.33
2022-09-07T02:53:06.305Z,33.29
2022-09-07T02:54:49.290Z,33.57
2022-09-07T02:56:37.889Z,33.71
2022-09-07T02:57:48.498Z,34.09
2022-09-07T02:59:04.374Z,34.07
2022-09-07T03:00:18.864Z,34.06
2022-09-07T03:01:31.451Z,34.27
2022-09-07T03:02:52.255Z,34.41
2022-09-07T03:04:22.785Z,34.61
2022-09-07T03:05:49.126Z,34.74
2022-09-07T03:07:05.584Z,34.88
2022-09-07T03:08:13.696Z,35.01
2022-09-07T03:09:24.621Z,34.86
2022-09-07T03:10:34.055Z,34.75
2022-09-07T03:11:40.953Z,34.86
2022-09-07T03:12:50.620Z,34.83
2022-09-07T03:14:21.297Z,34.91
2022-09-07T03:15:28.198Z,35.09
2022-09-07T03:16:35.083Z,35.00
2022-09-07T03:17:44.760Z,35.25
2022-09-07T03:18:54.139Z,35.23
2022-09-07T03:20:03.125Z,35.55
2022-09-07T03:21:12.247Z,35.84
2022-09-07T03:22:19.234Z,35.81
2022-09-07T03:23:25.845Z,35.80
2022-09-07T03:24:33.205Z,35.75
2022-09-07T03:25:39.419Z,35.49
2022-09-07T03:26:47.153Z,35.95
2022-09-07T03:27:53.460Z,36.02
2022-09-07T03:29:00.750Z,36.04
2022-09-07T03:30:08.919Z,36.11
2022-09-07T03:31:17.971Z,36.15
2022-09-07T03:32:31.972Z,36.20
2022-09-07T03:33:45.691Z,36.39
2022-09-07T03:35:18.625Z,36.46
2022-09-07T03:36:25.541Z,36.80
2022-09-07T03:37:33.208Z,36.89
2022-09-07T03:38:41.418Z,36.94
2022-09-07T03:39:49.134Z,36.83
2022-09-07T03:41:05.377Z,36.81
2022-09-07T03:42:20.100Z,37.03
2022-09-07T03:43:28.152Z,36.83
2022-09-07T03:44:46.434Z,36.96
2022-09-07T03:46:06.999Z,37.08
2022-09-07T03:47:18.334Z,37.15
2022-09-07T03:48:32.773Z,37.09
2022-09-07T03:49:40.755Z,37.15
2022-09-07T03:51:03.703Z,37.29
2022-09-07T03:52:17.974Z,37.67
2022-09-07T03:53:26.480Z,38.07
2022-09-07T03:54:37.830Z,38.14
2022-09-07T03:55:58.136Z,37.95
2022-09-07T03:57:04.371Z,37.65
2022-09-07T03:58:12.124Z,37.66
2022-09-07T03:59:21.084Z,37.76
2022-09-07T04:00:28.726Z,37.83
2022-09-07T04:01:34.461Z,38.01
2022-09-07T04:02:42.436Z,38.17
2022-09-07T04:03:48.599Z,38.69
2022-09-07T04:04:57.445Z,38.84
2022-09-07T04:06:03.404Z,38.99
2022-09-07T04:07:10.814Z,39.30
2022-09-07T04:08:17.032Z,39.56
2022-09-07T04:09:23.466Z,39.65
2022-09-07T04:10:29.350Z,39.85
2022-09-07T04:11:36.387Z,39.95
2022-09-07T04:12:43.227Z,40.10
2022-09-07T04:13:50.893Z,40.30
2022-09-07T04:14:59.067Z,40.58
2022-09-07T04:16:15.062Z,40.74
2022-09-07T04:17:21.970Z,40.86
2022-09-07T04:18:29.861Z,41.15
2022-09-07T04:19:37.530Z,41.32
2022-09-07T04:20:44.662Z,41.22
2022-09-07T04:21:51.044Z,41.50
2022-09-07T04:22:58.158Z,41.61
2022-09-07T04:24:05.596Z,41.75
2022-09-07T04:25:15.887Z,41.86
2022-09-07T04:26:36.723Z,41.78
2022-09-07T04:27:46.575Z,41.85
2022-09-07T04:28:54.173Z,41.71
2022-09-07T04:30:03.317Z,41.90
2022-09-07T04:31:11.185Z,41.91
2022-09-07T04:32:18.411Z,42.09
2022-09-07T04:33:25.169Z,42.17
2022-09-07T04:34:32.983Z,42.47
2022-09-07T04:35:43.568Z,42.53
2022-09-07T04:36:50.490Z,42.79
2022-09-07T04:37:56.310Z,42.95
2022-09-07T04:39:06.499Z,43.22
2022-09-07T04:40:13.483Z,43.30
2022-09-07T04:41:21.472Z,43.34
2022-09-07T04:42:28.992Z,43.51
2022-09-07T04:43:36.219Z,43.93
2022-09-07T04:44:43.487Z,44.16
2022-09-07T04:45:49.364Z,44.09
2022-09-07T04:46:58.782Z,43.99
2022-09-07T04:48:06.026Z,44.17
2022-09-07T04:49:14.129Z,44.34
2022-09-07T04:50:22.993Z,44.48
2022-09-07T04:51:32.236Z,44.52
2022-09-07T04:52:40.324Z,44.58
2022-09-07T04:53:49.233Z,44.83
2022-09-07T04:54:55.945Z,44.63
2022-09-07T04:56:04.991Z,44.70
2022-09-07T04:57:15.970Z,44.76
2022-09-07T04:58:25.887Z,44.78
2022-09-07T04:59:35.894Z,44.97
2022-09-07T05:00:43.216Z,45.19
2022-09-07T05:01:49.905Z,45.38
2022-09-07T05:02:56.346Z,45.35
2022-09-07T05:04:05.058Z,45.32
2022-09-07T05:05:12.225Z,45.37
2022-09-07T05:06:19.968Z,45.60
2022-09-07T05:07:27.142Z,45.55
2022-09-07T05:08:39.396Z,45.51
2022-09-07T05:09:48.986Z,45.73
2022-09-07T05:11:01.466Z,45.99
2022-09-07T05:12:08.047Z,46.06
2022-09-07T05:13:15.880Z,46.27
2022-09-07T05:14:22.612Z,46.31
2022-09-07T05:15:32.931Z,46.43
2022-09-07T05:16:39.988Z,46.41
2022-09-07T05:17:46.750Z,46.41
2022-09-07T05:18:54.222Z,46.38
2022-09-07T05:20:01.720Z,46.63
2022-09-07T05:21:16.781Z,46.43
2022-09-07T05:22:23.507Z,46.74
2022-09-07T05:23:32.174Z,46.79
2022-09-07T05:24:40.587Z,46.59
2022-09-07T05:25:48.520Z,46.54
2022-09-07T05:26:54.776Z,46.54
2022-09-07T05:28:00.567Z,46.51
2022-09-07T05:32:03.405Z,46.89
2022-09-07T05:33:11.511Z,47.02
2022-09-07T05:34:32.742Z,46.92
2022-09-07T05:35:44.443Z,46.84
2022-09-07T05:36:52.157Z,46.91
2022-09-07T05:37:58.698Z,47.05
2022-09-07T05:39:07.974Z,47.09
2022-09-07T05:40:16.699Z,47.19
2022-09-07T05:41:27.929Z,47.12
2022-09-07T05:42:37.674Z,47.20
2022-09-07T05:45:18.374Z,47.15
2022-09-07T05:46:26.494Z,47.04
2022-09-07T05:47:34.999Z,47.18
2022-09-07T05:48:41.747Z,47.14
2022-09-07T05:49:52.950Z,47.29
2022-09-07T05:51:03.977Z,47.29
2022-09-07T05:52:14.952Z,47.41
2022-09-07T05:53:23.562Z,47.51
2022-09-07T05:54:31.849Z,47.58
2022-09-07T05:55:41.927Z,47.66
2022-09-07T05:56:48.182Z,47.61
2022-09-07T05:57:55.536Z,47.49
2022-09-07T05:59:03.056Z,47.72
2022-09-07T06:00:10.222Z,47.61
2022-09-07T06:01:19.016Z,47.65
2022-09-07T06:02:25.632Z,47.63
2022-09-07T06:03:33.207Z,47.61
2022-09-07T06:04:41.969Z,47.64
2022-09-07T06:05:50.330Z,47.59
2022-09-07T06:07:20.702Z,47.52
2022-09-07T06:08:24.180Z,47.95
2022-09-07T06:09:32.464Z,48.09
2022-09-07T06:11:50.099Z,48.24
2022-09-07T06:12:56.142Z,48.41
2022-09-07T06:14:04.869Z,48.42
2022-09-07T06:15:12.012Z,48.42
2022-09-07T06:16:18.594Z,48.47
2022-09-07T06:17:27.988Z,48.56
2022-09-07T06:18:36.779Z,48.72
2022-09-07T06:19:46.208Z,48.74
2022-09-07T06:20:54.886Z,49.20
2022-09-07T06:22:03.575Z,49.20
2022-09-07T06:23:11.536Z,49.09
2022-09-07T06:24:18.938Z,49.25
2022-09-07T06:25:26.909Z,49.44
2022-09-07T06:26:35.170Z,49.84
2022-09-07T06:27:42.085Z,49.76
2022-09-07T06:28:51.376Z,49.76
2022-09-07T06:30:01.982Z,49.64
2022-09-07T06:31:09.097Z,49.53
2022-09-07T06:33:47.261Z,49.72
2022-09-07T06:34:54.409Z,49.66
2022-09-07T06:36:05.899Z,49.60
2022-09-07T06:37:13.479Z,49.54
2022-09-07T06:38:21.671Z,49.88
2022-09-07T06:39:30.042Z,50.29
2022-09-07T06:40:39.108Z,49.89
2022-09-07T06:42:01.450Z,49.86
2022-09-07T06:43:10.264Z,50.00
2022-09-07T06:44:20.429Z,50.15
2022-09-07T06:45:29.234Z,50.23
2022-09-07T06:48:08.613Z,50.19
2022-09-07T06:49:17.020Z,50.22
2022-09-07T06:50:23.253Z,50.43
2022-09-07T06:51:31.645Z,50.59
2022-09-07T06:55:44.230Z,50.96
2022-09-07T06:56:51.520Z,50.97
2022-09-07T06:58:00.406Z,51.09
2022-09-07T06:59:07.704Z,51.15
2022-09-07T07:00:15.773Z,51.26
2022-09-07T07:01:22.168Z,51.41
2022-09-07T07:02:30.227Z,51.36
2022-09-07T07:03:37.119Z,51.44
2022-09-07T07:04:43.617Z,51.60
2022-09-07T07:05:56.866Z,51.57
2022-09-07T07:07:03.537Z,51.75
2022-09-07T07:08:12.416Z,51.73
2022-09-07T07:09:20.199Z,51.85
2022-09-07T07:10:29.353Z,52.30
2022-09-07T07:11:37.824Z,51.88
2022-09-07T07:13:49.971Z,51.83
2022-09-07T07:14:55.647Z,51.77
2022-09-07T07:16:17.683Z,51.98
2022-09-07T07:17:25.913Z,52.03
2022-09-07T07:18:33.847Z,52.27
2022-09-07T07:19:41.512Z,52.41
2022-09-07T07:20:47.923Z,52.66
2022-09-07T07:22:14.410Z,52.95
2022-09-07T07:23:23.903Z,53.00
2022-09-07T07:24:30.966Z,53.08
2022-09-07T07:25:38.162Z,53.08
2022-09-07T07:26:49.236Z,53.22
2022-09-07T07:29:30.209Z,53.29
2022-09-07T07:30:36.523Z,53.65
2022-09-07T07:31:44.839Z,53.89
2022-09-07T07:32:51.038Z,53.62
2022-09-07T07:33:58.975Z,53.68
2022-09-07T07:35:05.316Z,53.55
2022-09-07T07:36:25.291Z,53.58
2022-09-07T07:37:34.302Z,53.62
2022-09-07T07:43:01.603Z,54.20
2022-09-07T07:44:10.998Z,53.98
2022-09-07T07:46:51.706Z,54.05
2022-09-07T07:48:00.907Z,53.65
2022-09-07T07:49:07.144Z,53.63
2022-09-07T08:03:20.632Z,54.29
2022-09-07T08:04:30.192Z,54.48
2022-09-07T08:05:38.695Z,54.54
2022-09-07T08:06:44.978Z,54.71
2022-09-07T08:07:51.097Z,54.57
2022-09-07T08:08:59.154Z,54.61
2022-09-07T08:10:05.703Z,54.60
2022-09-07T08:11:18.440Z,55.01
2022-09-07T08:12:29.661Z,55.01
2022-09-07T08:13:38.243Z,55.03
2022-09-07T08:14:45.616Z,55.05
2022-09-07T08:15:55.783Z,54.91
2022-09-07T08:17:03.935Z,54.69
2022-09-07T08:18:13.844Z,54.76
2022-09-07T08:19:22.373Z,54.80
2022-09-07T08:20:28.975Z,54.97
2022-09-07T08:21:37.784Z,55.04
2022-09-07T08:22:44.416Z,55.21
2022-09-07T08:23:50.726Z,55.21
2022-09-07T08:25:00.949Z,55.22
2022-09-07T08:26:09.061Z,55.32
2022-09-07T08:27:19.561Z,55.31
2022-09-07T08:28:30.975Z,55.32
2022-09-07T08:29:37.861Z,55.17
2022-09-07T08:30:51.735Z,55.07
2022-09-07T08:31:58.499Z,55.05
2022-09-07T08:33:05.655Z,54.81
2022-09-07T08:34:17.108Z,54.81
2022-09-07T08:35:23.205Z,54.87
2022-09-07T08:36:30.726Z,54.78
2022-09-07T08:37:40.350Z,54.79
2022-09-07T08:38:48.642Z,55.14
2022-09-07T08:39:54.773Z,55.18
2022-09-07T08:41:04.517Z,55.13
2022-09-07T08:42:55.200Z,55.05
2022-09-07T08:44:06.090Z,54.76
2022-09-07T08:45:17.957Z,54.65
2022-09-07T08:46:53.927Z,54.78
2022-09-07T08:48:03.092Z,54.92
2022-09-07T08:49:49.784Z,55.62
2022-09-07T08:51:05.372Z,55.74
2022-09-07T08:52:30.828Z,55.62
2022-09-07T08:53:45.382Z,55.65
2022-09-07T08:55:27.387Z,56.40
2022-09-07T08:56:38.563Z,57.35
2022-09-07T08:57:48.538Z,57.50
2022-09-07T08:58:55.778Z,57.25
2022-09-07T09:00:12.871Z,57.21
2022-09-07T09:01:31.994Z,57.66
2022-09-07T09:02:44.414Z,57.97
2022-09-07T09:05:25.166Z,58.34
2022-09-07T09:06:55.431Z,58.34
2022-09-07T09:08:25.682Z,58.36
2022-09-07T09:09:44.485Z,58.48
2022-09-07T09:11:19.417Z,58.62
2022-09-07T09:12:46.498Z,58.73
2022-09-07T09:14:37.298Z,58.72
2022-09-07T09:16:20.620Z,58.54
2022-09-07T09:17:45.818Z,58.33
2022-09-07T09:18:59.829Z,58.54
2022-09-07T09:20:15.357Z,58.65
2022-09-07T09:21:25.305Z,58.58
2022-09-07T09:22:32.085Z,58.63
2022-09-07T09:23:46.684Z,58.52
2022-09-07T09:25:18.757Z,58.42
2022-09-07T09:26:26.228Z,58.24
2022-09-07T09:27:32.386Z,58.61
2022-09-07T09:28:38.558Z,58.83
2022-09-07T09:29:48.105Z,58.85
2022-09-07T09:30:54.240Z,58.83
2022-09-07T09:32:00.561Z,58.76
2022-09-07T09:33:34.272Z,58.83
2022-09-07T09:34:41.109Z,58.63
2022-09-07T09:35:52.224Z,58.42
2022-09-07T09:37:01.941Z,58.25
2022-09-07T09:38:33.564Z,58.34
2022-09-07T09:39:43.438Z,58.36
2022-09-07T09:40:53.645Z,58.25
2022-09-07T09:42:02.881Z,58.28
2022-09-07T09:43:30.391Z,58.36
2022-09-07T09:44:40.062Z,58.64
2022-09-07T09:47:33.651Z,59.32
2022-09-07T09:48:43.071Z,59.30
2022-09-07T09:49:54.048Z,59.46
2022-09-07T09:52:36.283Z,59.70
2022-09-07T09:54:07.296Z,59.50
2022-09-07T09:55:34.947Z,59.26
2022-09-07T09:56:46.863Z,59.11
2022-09-07T10:01:33.328Z,58.92
2022-09-07T10:04:24.394Z,58.58
2022-09-07T10:05:37.759Z,58.62
2022-09-07T10:06:50.718Z,58.70
2022-09-07T10:07:57.742Z,58.81
2022-09-07T10:09:07.481Z,58.81
2022-09-07T10:10:20.730Z,58.84
2022-09-07T10:13:22.359Z,58.75
2022-09-07T10:14:33.355Z,58.59
2022-09-07T10:15:41.585Z,58.73
2022-09-07T10:16:48.936Z,58.80
2022-09-07T10:17:54.825Z,59.35
2022-09-07T10:19:03.916Z,59.45
2022-09-07T10:20:21.251Z,59.58
2022-09-07T10:21:30.793Z,59.53
2022-09-07T10:22:39.584Z,59.54
2022-09-07T10:23:46.337Z,59.35
2022-09-07T10:24:52.527Z,59.39
2022-09-07T10:26:00.507Z,59.31
2022-09-07T10:27:33.508Z,59.29
2022-09-07T10:30:19.377Z,59.29
2022-09-07T10:31:31.350Z,59.45
2022-09-07T10:32:57.126Z,59.37
2022-09-07T10:34:26.215Z,59.24
2022-09-07T10:36:07.561Z,59.43
2022-09-07T10:37:27.524Z,59.53
2022-09-07T10:38:39.272Z,59.71
2022-09-07T10:40:04.754Z,59.77
2022-09-07T10:41:12.499Z,59.89
2022-09-07T10:42:35.170Z,60.10
2022-09-07T10:43:45.807Z,60.32
2022-09-07T10:44:58.345Z,60.34
2022-09-07T10:46:59.372Z,60.18
2022-09-07T10:48:13.951Z,59.99
2022-09-07T10:51:57.653Z,60.17
2022-09-07T10:53:43.091Z,60.49
2022-09-07T10:54:57.344Z,60.84
2022-09-07T10:56:29.190Z,60.84
2022-09-07T10:57:54.867Z,60.95
2022-09-07T10:59:07.826Z,61.00
2022-09-07T11:00:16.560Z,60.97
2022-09-07T11:01:42.641Z,60.83
2022-09-07T11:03:27.116Z,60.69
2022-09-07T11:05:04.759Z,60.43
2022-09-07T11:06:36.897Z,60.44
2022-09-07T11:07:50.337Z,60.63
2022-09-07T11:09:32.788Z,60.65
2022-09-07T11:10:52.075Z,60.79
2022-09-07T11:12:16.840Z,60.62
2022-09-07T11:13:26.536Z,60.92
2022-09-07T11:15:13.876Z,61.29
2022-09-07T11:18:06.016Z,61.33
2022-09-07T11:20:56.098Z,61.30
2022-09-07T11:22:07.473Z,61.20
2022-09-07T11:23:27.485Z,60.98
2022-09-07T11:26:24.642Z,60.92
2022-09-07T11:27:55.578Z,60.74
2022-09-07T11:30:47.552Z,61.22
2022-09-07T11:32:04.414Z,61.52
2022-09-07T11:34:23.641Z,61.58
2022-09-07T11:35:39.960Z,61.37
2022-09-07T11:37:08.395Z,61.18
2022-09-07T11:38:20.681Z,61.08
2022-09-07T11:39:46.791Z,61.33
2022-09-07T11:41:15.234Z,61.18
2022-09-07T11:42:52.449Z,61.20
2022-09-07T11:44:19.749Z,61.13
2022-09-07T11:46:06.251Z,60.99
2022-09-07T11:48:00.147Z,61.28
2022-09-07T11:49:13.887Z,61.43
2022-09-07T11:50:23.894Z,62.28
2022-09-07T11:52:05.501Z,62.64
2022-09-07T11:53:33.590Z,63.07
2022-09-07T11:54:49.012Z,63.32
2022-09-07T11:56:02.041Z,63.35
2022-09-07T11:57:17.142Z,63.44
2022-09-07T11:58:29.908Z,63.34
2022-09-07T12:00:12.951Z,63.34
2022-09-07T12:01:43.202Z,63.37
2022-09-07T12:03:01.334Z,63.14
2022-09-07T12:04:31.114Z,63.24
2022-09-07T12:06:01.063Z,63.22
2022-09-07T12:07:37.089Z,63.58
2022-09-07T12:09:04.939Z,64.68
2022-09-07T12:10:32.691Z,65.14
2022-09-07T12:12:03.522Z,65.00
2022-09-07T12:13:39.071Z,64.98
2022-09-07T12:15:03.441Z,64.64
2022-09-07T12:16:35.617Z,64.40
2022-09-07T12:17:55.028Z,64.55
2022-09-07T12:19:27.017Z,64.91
2022-09-07T12:20:49.077Z,64.94
2022-09-07T12:21:55.196Z,65.00
2022-09-07T12:23:05.404Z,65.17
2022-09-07T12:24:39.099Z,65.18
2022-09-07T12:25:49.835Z,65.20
2022-09-07T12:26:56.109Z,65.19
2022-09-07T12:28:01.947Z,65.39
2022-09-07T12:29:25.214Z,65.19
2022-09-07T12:30:36.857Z,64.84
2022-09-07T12:31:57.701Z,65.09
2022-09-07T12:33:24.769Z,65.10
2022-09-07T12:34:33.688Z,65.35
2022-09-07T12:35:41.141Z,65.43
2022-09-07T12:36:52.589Z,65.36
2022-09-07T12:37:59.827Z,65.25
2022-09-07T12:39:29.469Z,65.64
2022-09-07T12:40:37.103Z,65.84
2022-09-07T12:41:46.953Z,65.83
2022-09-07T12:43:14.461Z,65.86
2022-09-07T12:44:26.097Z,66.04
2022-09-07T12:45:39.150Z,66.19
2022-09-07T12:46:49.568Z,66.32
2022-09-07T12:47:58.852Z,66.30
2022-09-07T12:49:41.606Z,66.18
2022-09-07T12:51:59.359Z,66.34
2022-09-07T12:52:48.496Z,66.70
2022-09-07T12:53:57.905Z,66.64
2022-09-07T12:57:29.846Z,66.32
2022-09-07T12:58:46.658Z,66.29
2022-09-07T13:00:05.183Z,66.01
2022-09-07T13:01:23.516Z,65.81
2022-09-07T13:03:49.290Z,66.25
2022-09-07T13:04:59.213Z,66.86
2022-09-07T13:07:02.679Z,66.80
2022-09-07T13:08:50.523Z,66.46
2022-09-07T13:10:29.495Z,66.46
2022-09-07T13:11:39.488Z,66.53
2022-09-07T13:12:53.188Z,66.38
2022-09-07T13:14:08.477Z,66.26
2022-09-07T13:15:52.351Z,66.44
2022-09-07T13:17:36.246Z,66.35
2022-09-07T13:18:47.057Z,66.63
2022-09-07T13:19:56.694Z,66.60
2022-09-07T13:21:14.620Z,66.81
2022-09-07T13:22:37.702Z,67.05
2022-09-07T13:24:48.110Z,67.34
2022-09-07T13:25:50.491Z,67.68
2022-09-07T13:27:22.895Z,68.02
2022-09-07T13:28:56.825Z,68.11
2022-09-07T13:30:13.209Z,68.11
2022-09-07T13:31:57.591Z,67.96
2022-09-07T13:33:27.256Z,68.03
2022-09-07T13:34:35.629Z,68.02
2022-09-07T13:35:46.251Z,67.90
2022-09-07T13:36:54.490Z,68.09
2022-09-07T13:38:06.763Z,68.17
2022-09-07T13:39:19.650Z,68.46
2022-09-07T13:40:35.551Z,68.57
2022-09-07T13:41:56.848Z,68.57
2022-09-07T13:43:03.226Z,68.41
2022-09-07T13:44:25.929Z,68.45
2022-09-07T13:45:34.985Z,68.23
2022-09-07T13:46:50.704Z,67.93
2022-09-07T13:48:21.107Z,67.89
2022-09-07T13:49:35.208Z,67.77
2022-09-07T13:50:48.287Z,67.67
2022-09-07T13:52:01.527Z,67.79
2022-09-07T13:53:16.356Z,68.00
2022-09-07T13:54:59.775Z,68.10
2022-09-07T13:56:25.609Z,68.10
2022-09-07T13:58:09.273Z,68.23
2022-09-07T13:59:28.765Z,68.20
2022-09-07T14:00:34.772Z,67.98
2022-09-07T14:01:45.520Z,67.50
2022-09-07T14:02:56.773Z,66.98
2022-09-07T14:04:08.111Z,66.34
2022-09-07T14:05:19.224Z,65.80
2022-09-07T14:06:36.461Z,65.39
2022-09-07T14:07:46.626Z,65.13
2022-09-07T14:09:00.743Z,64.65
2022-09-07T14:10:25.747Z,63.84
2022-09-07T14:11:55.269Z,62.88
2022-09-07T14:13:13.561Z,62.05
2022-09-07T14:14:27.660Z,61.43
2022-09-07T14:15:40.753Z,60.68
2022-09-07T14:16:56.406Z,59.82
2022-09-07T14:18:15.377Z,59.24
2022-09-07T14:19:28.090Z,58.55
2022-09-07T14:20:43.371Z,58.04
2022-09-07T14:22:20.167Z,57.02
2022-09-07T14:23:34.025Z,56.62
2022-09-07T14:25:03.132Z,55.14
2022-09-07T14:26:23.879Z,54.25
2022-09-07T14:27:36.081Z,53.73
2022-09-07T14:28:43.912Z,53.49
2022-09-07T14:29:53.193Z,53.07
2022-09-07T14:31:00.854Z,52.00
2022-09-07T14:32:10.991Z,49.97
2022-09-07T14:33:23.383Z,49.20
2022-09-07T14:34:35.837Z,49.48
2022-09-07T14:35:46.094Z,49.40
2022-09-07T14:36:53.256Z,49.45
2022-09-07T14:39:55.810Z,48.87
2022-09-07T14:41:06.322Z,48.68
2022-09-07T14:42:16.729Z,48.18
2022-09-07T14:43:37.689Z,47.92
2022-09-07T14:44:46.208Z,47.57
2022-09-07T14:45:53.263Z,47.70
2022-09-07T14:47:09.631Z,47.24
2022-09-07T14:48:16.565Z,46.74
2022-09-07T14:49:24.810Z,46.71
2022-09-07T14:50:34.897Z,46.51
2022-09-07T14:51:44.759Z,46.29
2022-09-07T14:54:28.050Z,46.53
2022-09-07T14:55:46.495Z,46.38
2022-09-07T14:57:33.114Z,46.40
2022-09-07T14:58:40.928Z,46.49
2022-09-07T14:59:48.217Z,46.56
2022-09-07T15:02:38.676Z,46.92
2022-09-07T15:03:51.197Z,46.84
2022-09-07T15:05:31.532Z,46.88
2022-09-07T15:08:21.362Z,46.47
2022-09-07T15:09:38.887Z,46.37
2022-09-07T15:11:33.006Z,45.95
2022-09-07T15:12:39.294Z,45.77
2022-09-07T15:13:47.299Z,45.12
2022-09-07T15:14:55.622Z,44.87
2022-09-07T15:16:04.793Z,43.83
2022-09-07T15:17:49.817Z,43.29
2022-09-07T15:19:03.703Z,43.32
2022-09-07T15:20:34.811Z,42.36
2022-09-07T15:21:42.585Z,41.42
2022-09-07T15:22:52.937Z,41.01
2022-09-07T15:24:11.798Z,39.64
2022-09-07T15:25:21.783Z,38.89
2022-09-07T15:30:02.185Z,37.00
2022-09-07T15:31:54.584Z,36.52
2022-09-07T15:32:59.349Z,36.20
2022-09-07T15:34:13.179Z,35.91
2022-09-07T15:35:20.944Z,35.68
2022-09-07T15:36:31.878Z,35.25
2022-09-07T15:39:20.908Z,35.31
2022-09-07T15:40:27.997Z,35.05
2022-09-07T15:41:34.849Z,34.97
2022-09-07T15:43:08.519Z,34.74
2022-09-07T15:44:15.880Z,34.15
2022-09-07T15:45:29.260Z,34.23
2022-09-07T15:46:37.166Z,33.92
2022-09-07T15:47:50.844Z,33.29
2022-09-07T15:49:01.930Z,33.08
2022-09-07T15:50:09.807Z,33.26
2022-09-07T15:52:46.471Z,33.03
2022-09-07T15:54:12.636Z,32.36
2022-09-07T15:55:23.117Z,31.98
2022-09-07T15:56:39.518Z,31.39
2022-09-07T15:57:51.169Z,31.15
2022-09-07T15:59:01.999Z,31.09
2022-09-07T16:00:12.220Z,30.90
2022-09-07T16:03:07.830Z,30.26
2022-09-07T16:04:18.454Z,29.34
2022-09-07T16:05:30.794Z,29.42
2022-09-07T16:06:43.397Z,29.13
2022-09-07T16:09:21.452Z,29.70
2022-09-07T16:10:31.568Z,29.90
2022-09-07T16:11:38.148Z,29.76
2022-09-07T16:13:09.654Z,29.88
2022-09-07T16:14:20.813Z,29.79
2022-09-07T16:15:29.462Z,29.61
2022-09-07T16:18:05.586Z,29.32
2022-09-07T16:19:20.139Z,29.04
2022-09-07T16:20:31.985Z,29.05
2022-09-07T16:21:42.643Z,29.19
2022-09-07T16:24:24.397Z,28.84
2022-09-07T16:25:30.314Z,29.04
2022-09-07T16:26:39.242Z,28.99
2022-09-07T16:27:46.948Z,29.15
2022-09-07T16:28:56.739Z,28.88
2022-09-07T16:30:03.395Z,28.94
2022-09-07T16:31:15.632Z,29.10
2022-09-07T16:33:51.957Z,29.09
2022-09-07T16:35:00.519Z,28.77
2022-09-07T16:36:09.308Z,28.17
2022-09-07T16:37:16.554Z,28.25
2022-09-07T16:39:54.053Z,28.28
2022-09-07T16:41:01.992Z,28.32
2022-09-07T16:42:09.584Z,28.35
2022-09-07T16:43:17.302Z,28.35
2022-09-07T16:44:24.316Z,28.23
2022-09-07T16:47:01.404Z,27.91
2022-09-07T16:48:09.530Z,27.69
2022-09-07T16:49:21.806Z,27.49
2022-09-07T16:50:32.914Z,27.35
2022-09-07T16:51:40.001Z,27.16
2022-09-07T16:52:50.766Z,26.92
2022-09-07T16:53:59.799Z,26.57
2022-09-07T16:55:06.181Z,26.59
2022-09-07T16:56:17.326Z,26.55
2022-09-07T16:57:24.498Z,26.46
2022-09-07T16:58:37.260Z,26.44
2022-09-07T16:59:46.049Z,26.49
2022-09-07T17:00:53.360Z,26.31
2022-09-07T17:02:00.905Z,26.04
2022-09-07T17:03:13.682Z,25.47
2022-09-07T17:04:30.290Z,25.26
2022-09-07T17:05:42.547Z,25.39
2022-09-07T17:08:14.710Z,24.89
2022-09-07T17:09:27.579Z,24.89
2022-09-07T17:10:35.273Z,24.85
2022-09-07T17:11:42.757Z,24.85
2022-09-07T17:12:53.009Z,24.67
2022-09-07T17:13:59.472Z,24.71
2022-09-07T17:15:08.088Z,24.95
2022-09-07T17:16:20.674Z,25.02
2022-09-07T17:17:35.240Z,24.72
2022-09-07T17:20:14.361Z,24.91
2022-09-07T17:21:21.331Z,24.86
2022-09-07T17:22:30.944Z,24.77